ADDS METAR Data

Data at: 0716 UTC 16 Jan 2018

METAR for:KSDL (Scottsdale Muni, AZ, US)
Text:KSDL 160653Z AUTO 00000KT 10SM CLR 12/03 A3010 RMK AO2 SLP180 T01170033 402330078
Temperature: 11.7°C ( 53°F)
Dewpoint: 3.3°C ( 38°F) [RH = 56%]
Pressure (altimeter):30.10 inches Hg (1019.4 mb) [Sea level pressure: 1018.0 mb]
Winds:calm
Visibility:10 or more sm (16+ km)
Ceiling:at least 12,000 feet AGL
Clouds:sky clear below 12,000 feet AGL
QC Flag:automated observation with no human augmentation